Time;durP1;ratioP1;P1;durP2;ratioP2;P2;SDS_P1;SDS_P2;PMS_P1;PMS_P2;Temp;Humidity;BMP_temperature;BMP_pressure;BME280_temperature;BME280_humidity;BME280_pressure;Samples;Min_cycle;Max_cycle;Signal;HPM_P1;HPM_P2
2022/10/06 00:00:45;;;;;;;;;;;12.60;99.90;;;;;;6109260;23;19944;-76
2022/10/06 00:03:11;;;;;;;;;;;12.70;99.90;;;;;;6115105;23;19928;-75
2022/10/06 00:05:37;;;;;;;;;;;12.70;99.90;;;;;;6111219;23;19908;-75
2022/10/06 00:08:03;;;;;;;;;;;12.70;99.90;;;;;;6116245;23;19905;-75
2022/10/06 00:10:29;;;;;;;;;;;12.70;99.90;;;;;;6085980;23;19909;-75
2022/10/06 00:12:56;;;;;;;;;;;12.70;99.90;;;;;;6085369;23;19905;-75
2022/10/06 00:15:24;;;;;;;;;;;12.70;99.90;;;;;;6111795;23;19900;-75
2022/10/06 00:17:50;;;;;;;;;;;12.70;99.90;;;;;;6108376;23;19913;-74
2022/10/06 00:20:16;;;;;;;;;;;12.70;99.90;;;;;;6111497;23;19912;-75
2022/10/06 00:22:45;;;;;;;;;;;12.70;99.90;;;;;;6084796;23;19905;-75
2022/10/06 00:25:16;;;;;;;;;;;12.70;99.90;;;;;;6106715;23;19928;-75
2022/10/06 00:27:43;;;;;;;;;;;12.70;99.90;;;;;;6086039;23;20005;-75
2022/10/06 00:30:12;;;;;;;;;;;12.70;99.90;;;;;;6111728;23;19909;-75
2022/10/06 00:32:39;;;;;;;;;;;12.70;99.90;;;;;;6110737;23;19904;-75
2022/10/06 00:35:06;;;;;;;;;;;12.70;99.90;;;;;;6111825;23;19956;-74
2022/10/06 00:37:35;;;;;;;;;;;12.70;99.90;;;;;;6085068;23;19905;-75
2022/10/06 00:40:08;;;;;;;;;;;12.60;99.90;;;;;;6111573;23;19908;-75
2022/10/06 00:42:33;;;;;;;;;;;12.70;99.90;;;;;;6089322;23;20367;-75
2022/10/06 00:45:02;;;;;;;;;;;12.70;99.90;;;;;;6110026;23;20013;-75
2022/10/06 00:47:29;;;;;;;;;;;12.70;99.90;;;;;;6110579;23;19904;-75
2022/10/06 00:49:55;;;;;;;;;;;12.60;99.90;;;;;;6083632;23;19915;-75
2022/10/06 00:52:24;;;;;;;;;;;12.70;99.90;;;;;;6083251;23;19909;-74
2022/10/06 00:54:50;;;;;;;;;;;12.60;99.90;;;;;;6109819;23;19916;-75
2022/10/06 00:57:16;;;;;;;;;;;12.50;99.90;;;;;;6103233;23;19912;-75
2022/10/06 00:59:43;;;;;;;;;;;12.30;99.90;;;;;;6109601;23;20641;-75
2022/10/06 01:02:16;;;;;;;;;;;12.40;99.90;;;;;;6109563;23;19908;-75
2022/10/06 01:04:47;;;;;;;;;;;12.40;99.90;;;;;;6108786;23;19905;-75
2022/10/06 01:07:12;;;;;;;;;;;12.40;99.90;;;;;;6107084;23;19905;-75
2022/10/06 01:09:38;;;;;;;;;;;12.30;99.90;;;;;;6104051;23;20313;-75
2022/10/06 01:12:05;;;;;;;;;;;12.30;99.90;;;;;;6112244;23;19905;-75
2022/10/06 01:14:35;;;;;;;;;;;12.40;99.90;;;;;;6106365;23;19935;-75
2022/10/06 01:17:21;;;;;;;;;;;12.40;99.90;;;;;;6107567;23;19909;-74
2022/10/06 01:19:52;;;;;;;;;;;12.30;99.90;;;;;;6110992;23;19900;-75
2022/10/06 01:22:28;;;;;;;;;;;12.10;99.90;;;;;;6110622;23;19908;-75
2022/10/06 01:24:56;;;;;;;;;;;12.10;99.90;;;;;;6110292;23;19976;-75
2022/10/06 01:27:24;;;;;;;;;;;12.10;99.90;;;;;;6110903;23;19901;-75
2022/10/06 01:29:52;;;;;;;;;;;12.20;99.90;;;;;;6109571;23;19984;-75
2022/10/06 01:32:18;;;;;;;;;;;12.20;99.90;;;;;;6104074;23;19901;-75
2022/10/06 01:34:44;;;;;;;;;;;12.20;99.90;;;;;;6109752;23;19979;-75
2022/10/06 01:37:15;;;;;;;;;;;12.20;99.90;;;;;;6116350;23;20571;-75
2022/10/06 01:39:41;;;;;;;;;;;12.20;99.90;;;;;;6111046;23;19972;-75
2022/10/06 01:42:07;;;;;;;;;;;12.10;99.90;;;;;;6109949;23;19929;-75
2022/10/06 01:44:35;;;;;;;;;;;12.10;99.90;;;;;;6110630;23;20227;-76
2022/10/06 01:47:05;;;;;;;;;;;12.00;99.90;;;;;;6112273;23;19929;-74
2022/10/06 01:49:32;;;;;;;;;;;12.00;99.90;;;;;;6109706;23;19963;-75
2022/10/06 01:51:58;;;;;;;;;;;12.00;99.90;;;;;;6109990;23;19939;-75
2022/10/06 01:54:25;;;;;;;;;;;12.00;99.90;;;;;;6110335;23;19905;-75
2022/10/06 01:56:51;;;;;;;;;;;12.00;99.90;;;;;;6110576;23;19916;-77
2022/10/06 01:59:17;;;;;;;;;;;12.00;99.90;;;;;;6105385;23;19905;-75
2022/10/06 02:01:44;;;;;;;;;;;12.00;99.90;;;;;;6108823;23;19905;-74
2022/10/06 02:04:12;;;;;;;;;;;12.00;99.90;;;;;;6110647;23;19909;-75
2022/10/06 02:06:37;;;;;;;;;;;12.00;99.90;;;;;;6110788;23;20447;-75
2022/10/06 02:09:05;;;;;;;;;;;12.00;99.90;;;;;;6108797;23;19908;-76
2022/10/06 02:11:32;;;;;;;;;;;12.00;99.90;;;;;;6110006;23;19904;-75
2022/10/06 02:14:00;;;;;;;;;;;11.90;99.90;;;;;;6111000;23;19905;-76
2022/10/06 02:16:27;;;;;;;;;;;11.90;99.90;;;;;;6110572;23;19940;-75
2022/10/06 02:18:53;;;;;;;;;;;11.90;99.90;;;;;;6107787;23;19980;-76
2022/10/06 02:21:20;;;;;;;;;;;11.90;99.90;;;;;;6110474;23;19964;-75
2022/10/06 02:23:46;;;;;;;;;;;11.80;99.90;;;;;;6103284;23;19920;-75
2022/10/06 02:26:12;;;;;;;;;;;11.80;99.90;;;;;;6110451;23;20338;-76
2022/10/06 02:28:38;;;;;;;;;;;11.80;99.90;;;;;;6084341;23;19932;-74
2022/10/06 02:31:07;;;;;;;;;;;11.80;99.90;;;;;;6115114;23;20485;-75
2022/10/06 02:33:34;;;;;;;;;;;11.80;99.90;;;;;;6108774;23;19901;-75
2022/10/06 02:36:01;;;;;;;;;;;11.80;99.90;;;;;;6115325;23;19916;-75
2022/10/06 02:38:27;;;;;;;;;;;11.80;99.90;;;;;;6109216;23;19900;-75
2022/10/06 02:40:57;;;;;;;;;;;11.70;99.90;;;;;;6109371;23;19901;-75
2022/10/06 02:43:27;;;;;;;;;;;11.70;99.90;;;;;;6110229;23;19901;-75
2022/10/06 02:45:54;;;;;;;;;;;11.70;99.90;;;;;;6108056;23;19905;-75
2022/10/06 02:48:21;;;;;;;;;;;11.50;99.90;;;;;;6109558;23;20556;-75
2022/10/06 02:50:57;;;;;;;;;;;11.60;99.90;;;;;;6104328;23;20407;-75
2022/10/06 02:53:26;;;;;;;;;;;11.60;99.90;;;;;;6084048;23;20292;-75
2022/10/06 02:55:58;;;;;;;;;;;11.60;99.90;;;;;;6110783;23;19908;-76
2022/10/06 02:58:28;;;;;;;;;;;11.50;99.90;;;;;;6109005;23;19987;-75
2022/10/06 03:01:05;;;;;;;;;;;11.60;99.90;;;;;;6109456;23;19935;-75
2022/10/06 03:03:31;;;;;;;;;;;11.50;99.90;;;;;;6088917;23;19908;-74
2022/10/06 03:06:22;;;;;;;;;;;11.50;99.90;;;;;;6104559;23;19908;-75
2022/10/06 03:08:57;;;;;;;;;;;11.50;99.90;;;;;;6084994;23;19901;-75
2022/10/06 03:11:24;;;;;;;;;;;11.50;99.90;;;;;;6110009;23;19923;-75
2022/10/06 03:13:50;;;;;;;;;;;11.50;99.90;;;;;;6084708;23;19905;-75
2022/10/06 03:16:32;;;;;;;;;;;11.50;99.90;;;;;;6111199;23;19916;-74
2022/10/06 03:19:00;;;;;;;;;;;11.50;99.90;;;;;;6085004;23;19901;-75
2022/10/06 03:21:28;;;;;;;;;;;11.40;99.90;;;;;;6109561;23;19916;-75
2022/10/06 03:29:28;;;;;;;;;;;11.30;99.90;;;;;;6089855;23;20322;-74
2022/10/06 03:34:56;;;;;;;;;;;11.30;99.90;;;;;;6085264;23;19980;-74
2022/10/06 03:40:24;;;;;;;;;;;11.20;99.90;;;;;;6087060;23;19952;-74
2022/10/06 03:45:57;;;;;;;;;;;11.20;99.90;;;;;;6084907;23;19935;-74
2022/10/06 03:48:23;;;;;;;;;;;11.20;99.90;;;;;;6083136;23;19944;-74
2022/10/06 03:50:56;;;;;;;;;;;11.20;99.90;;;;;;6082344;23;19898;-74
2022/10/06 03:53:24;;;;;;;;;;;11.20;99.90;;;;;;6081451;23;19912;-74
2022/10/06 03:56:08;;;;;;;;;;;11.20;99.90;;;;;;6082934;23;20474;-74
2022/10/06 03:58:39;;;;;;;;;;;11.20;99.90;;;;;;6082388;23;20026;-74
2022/10/06 04:01:08;;;;;;;;;;;11.10;99.90;;;;;;6082207;23;19901;-74
2022/10/06 04:03:34;;;;;;;;;;;11.10;99.90;;;;;;6082352;23;20308;-74
2022/10/06 04:06:03;;;;;;;;;;;11.00;99.90;;;;;;6081555;23;19962;-74
2022/10/06 04:08:29;;;;;;;;;;;11.10;99.90;;;;;;6079810;23;19901;-74
2022/10/06 04:10:55;;;;;;;;;;;11.00;99.90;;;;;;6081783;23;19901;-74
2022/10/06 04:13:26;;;;;;;;;;;11.00;99.90;;;;;;6082342;23;19929;-74
2022/10/06 04:15:53;;;;;;;;;;;11.10;99.90;;;;;;6105799;23;19901;-73
2022/10/06 04:18:22;;;;;;;;;;;11.10;99.90;;;;;;6081336;23;19964;-74
2022/10/06 04:20:49;;;;;;;;;;;11.10;99.90;;;;;;6080825;23;19909;-74
2022/10/06 04:23:15;;;;;;;;;;;11.00;99.90;;;;;;6082799;23;19919;-73
2022/10/06 04:25:40;;;;;;;;;;;11.00;99.90;;;;;;6105317;23;19920;-74
2022/10/06 04:28:06;;;;;;;;;;;11.00;99.90;;;;;;6082906;23;19902;-74
2022/10/06 04:30:32;;;;;;;;;;;10.90;99.90;;;;;;6081529;23;20323;-74
2022/10/06 04:33:00;;;;;;;;;;;10.90;99.90;;;;;;6082572;23;19905;-74
2022/10/06 04:35:28;;;;;;;;;;;10.90;99.90;;;;;;6100151;23;19937;-75
2022/10/06 04:37:55;;;;;;;;;;;10.90;99.90;;;;;;6080853;23;19905;-74
2022/10/06 04:40:20;;;;;;;;;;;10.90;99.90;;;;;;6106226;23;19907;-74
2022/10/06 04:42:48;;;;;;;;;;;10.90;99.90;;;;;;6081856;23;20192;-74
2022/10/06 04:45:13;;;;;;;;;;;10.90;99.90;;;;;;6103160;23;20239;-74
2022/10/06 04:47:39;;;;;;;;;;;11.00;99.90;;;;;;6082695;23;19905;-74
2022/10/06 04:50:05;;;;;;;;;;;10.90;99.90;;;;;;6077036;23;19901;-74
2022/10/06 04:52:31;;;;;;;;;;;10.90;99.90;;;;;;6079644;23;19905;-74
2022/10/06 04:55:02;;;;;;;;;;;10.90;99.90;;;;;;6082494;23;19959;-74
2022/10/06 04:57:29;;;;;;;;;;;10.90;99.90;;;;;;6099735;23;19910;-74
2022/10/06 05:02:39;;;;;;;;;;;11.00;99.90;;;;;;6080822;23;19916;-73
2022/10/06 05:05:06;;;;;;;;;;;11.40;99.90;;;;;;6081814;23;19901;-74
2022/10/06 05:07:33;;;;;;;;;;;11.60;99.90;;;;;;6075209;23;19905;-74
2022/10/06 05:10:01;;;;;;;;;;;11.90;99.90;;;;;;6081807;23;19901;-73
2022/10/06 05:12:32;;;;;;;;;;;12.30;99.90;;;;;;6104290;23;19901;-76
2022/10/06 05:15:04;;;;;;;;;;;12.90;99.90;;;;;;6082308;23;19908;-76
2022/10/06 05:17:34;;;;;;;;;;;13.20;99.90;;;;;;6081109;23;19909;-83
2022/10/06 05:20:21;;;;;;;;;;;13.60;99.90;;;;;;6106811;23;19890;-84
2022/10/06 05:22:52;;;;;;;;;;;13.90;99.90;;;;;;6146955;23;19897;-83
2022/10/06 05:25:19;;;;;;;;;;;14.40;99.90;;;;;;6112883;23;19929;-83
2022/10/06 05:27:49;;;;;;;;;;;14.70;99.90;;;;;;6088592;23;19905;-77
2022/10/06 05:30:15;;;;;;;;;;;14.90;99.90;;;;;;6086293;23;19972;-77
2022/10/06 05:32:45;;;;;;;;;;;15.00;99.90;;;;;;6082805;23;19948;-77
2022/10/06 05:35:22;;;;;;;;;;;15.10;99.90;;;;;;6080791;23;19932;-77
2022/10/06 05:37:49;;;;;;;;;;;15.20;99.90;;;;;;6082422;23;19945;-77
2022/10/06 05:40:15;;;;;;;;;;;15.20;99.90;;;;;;6082800;23;19951;-77
2022/10/06 05:42:47;;;;;;;;;;;15.30;99.90;;;;;;6104690;23;19936;-77
2022/10/06 05:45:13;;;;;;;;;;;15.40;99.90;;;;;;6081948;23;19905;-77
2022/10/06 05:47:41;;;;;;;;;;;15.40;99.90;;;;;;6080359;23;19933;-77
2022/10/06 05:50:07;;;;;;;;;;;15.80;99.90;;;;;;6077322;23;19909;-77
2022/10/06 05:52:41;;;;;;;;;;;16.50;99.90;;;;;;6080345;23;19956;-78
2022/10/06 05:55:07;;;;;;;;;;;17.30;99.90;;;;;;6081188;23;20227;-77
2022/10/06 05:57:40;;;;;;;;;;;18.10;99.90;;;;;;6080117;23;19908;-78
2022/10/06 06:00:06;;;;;;;;;;;19.00;99.90;;;;;;6082094;23;19901;-79
2022/10/06 06:02:40;;;;;;;;;;;19.60;99.90;;;;;;6081052;23;20212;-79
2022/10/06 06:05:18;;;;;;;;;;;20.10;99.90;;;;;;6081844;23;19909;-78
2022/10/06 06:07:47;;;;;;;;;;;20.90;98.90;;;;;;6080162;23;19907;-79
2022/10/06 06:10:18;;;;;;;;;;;21.40;97.70;;;;;;6082005;23;19909;-79
2022/10/06 06:12:51;;;;;;;;;;;21.40;97.00;;;;;;6081041;23;19908;-79
2022/10/06 06:18:06;;;;;;;;;;;22.50;94.30;;;;;;6081270;23;19921;-79
2022/10/06 06:20:32;;;;;;;;;;;22.90;93.10;;;;;;6080677;23;20397;-76
2022/10/06 06:22:58;;;;;;;;;;;23.10;92.30;;;;;;6081674;23;19909;-78
2022/10/06 06:25:33;;;;;;;;;;;23.00;91.80;;;;;;6077010;23;19909;-78
2022/10/06 06:28:00;;;;;;;;;;;23.10;91.40;;;;;;6104460;23;19902;-77
2022/10/06 06:30:31;;;;;;;;;;;23.20;91.00;;;;;;6081484;23;19902;-76
2022/10/06 06:33:09;;;;;;;;;;;23.20;90.80;;;;;;6079702;23;19905;-78
2022/10/06 06:35:42;;;;;;;;;;;23.50;90.20;;;;;;6079427;23;19972;-78
2022/10/06 06:38:12;;;;;;;;;;;23.90;89.30;;;;;;6079976;23;19921;-80
2022/10/06 06:40:40;;;;;;;;;;;24.30;87.90;;;;;;6079252;23;20392;-78
2022/10/06 06:43:11;;;;;;;;;;;24.60;86.30;;;;;;6080519;23;19916;-77
2022/10/06 06:45:37;;;;;;;;;;;25.00;84.60;;;;;;6079617;23;20409;-79
2022/10/06 06:48:11;;;;;;;;;;;25.30;82.40;;;;;;6104030;23;19908;-77
2022/10/06 06:50:40;;;;;;;;;;;25.50;81.40;;;;;;6103023;23;19931;-77
2022/10/06 06:53:11;;;;;;;;;;;25.90;80.40;;;;;;6082140;23;19905;-80
2022/10/06 06:55:49;;;;;;;;;;;26.20;79.50;;;;;;6075769;23;19925;-79
2022/10/06 06:58:18;;;;;;;;;;;26.60;77.90;;;;;;6079512;23;19912;-77
2022/10/06 07:00:50;;;;;;;;;;;26.70;76.90;;;;;;6103015;23;19909;-78
2022/10/06 07:03:21;;;;;;;;;;;26.90;75.80;;;;;;6082140;23;19909;-77
2022/10/06 07:05:50;;;;;;;;;;;27.10;75.40;;;;;;6085098;23;19905;-77
2022/10/06 07:08:19;;;;;;;;;;;27.20;74.60;;;;;;6073535;23;20655;-80
2022/10/06 07:10:47;;;;;;;;;;;27.50;73.90;;;;;;6079127;23;19968;-79
2022/10/06 07:13:19;;;;;;;;;;;27.60;73.60;;;;;;6078970;23;19911;-79
2022/10/06 07:27:09;;;;;;;;;;;28.40;70.40;;;;;;6109497;23;19940;-80
2022/10/06 07:29:35;;;;;;;;;;;28.70;69.40;;;;;;6110115;23;19912;-79
2022/10/06 07:32:01;;;;;;;;;;;29.00;69.60;;;;;;6107940;23;19901;-79
2022/10/06 07:34:29;;;;;;;;;;;29.20;67.80;;;;;;6103610;23;20320;-80
2022/10/06 07:37:02;;;;;;;;;;;29.60;67.60;;;;;;6113944;23;19959;-80
2022/10/06 07:39:28;;;;;;;;;;;29.60;66.70;;;;;;6110275;23;19900;-79
2022/10/06 07:41:53;;;;;;;;;;;29.50;66.60;;;;;;6109697;23;20007;-80
2022/10/06 07:44:29;;;;;;;;;;;29.60;66.40;;;;;;6110731;23;19912;-79
2022/10/06 07:46:54;;;;;;;;;;;29.40;66.10;;;;;;6107568;23;19923;-79
2022/10/06 07:49:21;;;;;;;;;;;29.90;65.30;;;;;;6112610;23;20334;-79
2022/10/06 07:51:57;;;;;;;;;;;30.20;64.50;;;;;;6109609;23;19963;-79
2022/10/06 07:54:26;;;;;;;;;;;30.40;64.60;;;;;;6109363;23;19929;-79
2022/10/06 07:56:53;;;;;;;;;;;30.60;63.50;;;;;;6110061;23;19968;-80
2022/10/06 07:59:21;;;;;;;;;;;30.50;63.20;;;;;;6109532;23;19901;-75
2022/10/06 08:01:54;;;;;;;;;;;30.50;62.80;;;;;;6108698;23;19904;-79
2022/10/06 08:04:19;;;;;;;;;;;30.50;62.80;;;;;;6110514;23;19901;-79
2022/10/06 08:06:48;;;;;;;;;;;30.40;62.80;;;;;;6111256;23;19911;-79
2022/10/06 08:09:14;;;;;;;;;;;30.40;62.60;;;;;;6110252;23;20267;-77
2022/10/06 08:11:40;;;;;;;;;;;30.50;62.80;;;;;;6102756;23;20258;-79
2022/10/06 08:14:06;;;;;;;;;;;30.60;62.40;;;;;;6109704;23;20343;-77
2022/10/06 08:16:35;;;;;;;;;;;31.00;61.60;;;;;;6108299;23;19905;-80
2022/10/06 08:19:18;;;;;;;;;;;30.90;60.60;;;;;;6103646;23;19908;-79
2022/10/06 08:21:45;;;;;;;;;;;31.10;60.30;;;;;;6109531;23;19901;-80
2022/10/06 08:24:11;;;;;;;;;;;31.20;60.70;;;;;;6104946;23;19936;-80
2022/10/06 08:26:42;;;;;;;;;;;31.20;59.90;;;;;;6109877;23;19921;-79
2022/10/06 08:29:10;;;;;;;;;;;31.00;60.00;;;;;;6110117;23;20391;-80
2022/10/06 08:31:35;;;;;;;;;;;30.90;60.00;;;;;;6109842;23;19927;-79
2022/10/06 08:34:01;;;;;;;;;;;31.70;59.40;;;;;;6105112;23;20327;-80
2022/10/06 08:36:28;;;;;;;;;;;31.80;59.00;;;;;;6110547;23;19905;-79
2022/10/06 08:38:55;;;;;;;;;;;31.80;58.30;;;;;;6110146;23;19904;-79
2022/10/06 08:41:25;;;;;;;;;;;32.40;58.30;;;;;;6109248;23;20052;-80
2022/10/06 08:43:58;;;;;;;;;;;32.90;57.30;;;;;;6110354;23;19928;-80
2022/10/06 08:46:29;;;;;;;;;;;33.40;57.20;;;;;;6113238;23;19948;-79
2022/10/06 08:49:02;;;;;;;;;;;33.90;56.30;;;;;;6116413;23;19901;-79
2022/10/06 08:51:37;;;;;;;;;;;34.30;55.30;;;;;;6085938;23;20260;-80
2022/10/06 08:54:23;;;;;;;;;;;34.70;54.70;;;;;;6110259;23;19927;-80
2022/10/06 08:56:58;;;;;;;;;;;35.00;54.30;;;;;;6110783;23;19909;-76
2022/10/06 08:59:25;;;;;;;;;;;35.70;53.70;;;;;;6112323;23;19901;-77
2022/10/06 09:01:53;;;;;;;;;;;36.20;53.20;;;;;;6108872;23;19916;-76
2022/10/06 09:04:22;;;;;;;;;;;36.60;52.60;;;;;;6109333;23;20466;-77
2022/10/06 09:06:59;;;;;;;;;;;36.80;52.10;;;;;;6109165;23;20107;-77
2022/10/06 09:09:42;;;;;;;;;;;36.70;52.20;;;;;;6107104;23;19901;-77
2022/10/06 09:12:17;;;;;;;;;;;36.50;51.70;;;;;;6102906;23;19905;-77
2022/10/06 09:14:51;;;;;;;;;;;36.80;51.20;;;;;;6085553;23;20337;-77
2022/10/06 09:17:33;;;;;;;;;;;36.70;51.20;;;;;;6105579;23;20454;-78
2022/10/06 09:20:01;;;;;;;;;;;36.60;51.10;;;;;;6113988;23;19901;-79
2022/10/06 09:22:28;;;;;;;;;;;36.90;50.60;;;;;;6110163;23;19952;-78
2022/10/06 09:24:56;;;;;;;;;;;35.50;51.20;;;;;;6110846;23;19905;-78
2022/10/06 09:27:32;;;;;;;;;;;34.20;52.30;;;;;;6086063;23;19908;-78
2022/10/06 09:30:07;;;;;;;;;;;33.60;53.60;;;;;;6115425;23;19925;-78
2022/10/06 09:32:37;;;;;;;;;;;35.00;53.30;;;;;;6110195;23;19908;-79
2022/10/06 09:35:15;;;;;;;;;;;35.80;52.40;;;;;;6110174;23;19987;-77
2022/10/06 09:37:54;;;;;;;;;;;36.40;51.80;;;;;;6110374;23;19913;-77
2022/10/06 09:40:37;;;;;;;;;;;37.30;50.80;;;;;;6110701;23;20386;-77
2022/10/06 09:43:24;;;;;;;;;;;37.90;50.30;;;;;;6109975;23;20459;-76
2022/10/06 09:45:57;;;;;;;;;;;38.20;50.00;;;;;;6111607;23;19984;-78
2022/10/06 09:48:25;;;;;;;;;;;38.40;49.40;;;;;;6111792;23;19901;-78
2022/10/06 09:51:07;;;;;;;;;;;38.30;49.50;;;;;;6105598;23;20315;-79
2022/10/06 09:53:38;;;;;;;;;;;37.80;49.40;;;;;;6105943;23;19928;-77
2022/10/06 09:56:17;;;;;;;;;;;38.10;49.20;;;;;;6111572;23;19901;-77
2022/10/06 09:58:59;;;;;;;;;;;38.40;49.00;;;;;;6109876;23;19909;-78
2022/10/06 10:01:28;;;;;;;;;;;38.30;48.90;;;;;;6106576;23;20301;-80
2022/10/06 10:04:03;;;;;;;;;;;38.70;48.40;;;;;;6111406;23;19987;-79
2022/10/06 10:06:34;;;;;;;;;;;39.10;48.50;;;;;;6111012;23;19924;-76
2022/10/06 10:09:27;;;;;;;;;;;38.70;48.30;;;;;;6106687;23;19928;-77
2022/10/06 10:12:30;;;;;;;;;;;38.60;48.50;;;;;;6108971;23;19904;-77
2022/10/06 10:15:00;;;;;;;;;;;38.10;48.50;;;;;;6111758;23;19939;-77
2022/10/06 10:17:53;;;;;;;;;;;38.70;48.60;;;;;;6109520;23;19911;-79
2022/10/06 10:20:25;;;;;;;;;;;39.40;47.70;;;;;;6083714;23;19908;-79
2022/10/06 10:22:57;;;;;;;;;;;40.00;47.70;;;;;;6103675;23;19909;-79
2022/10/06 10:25:45;;;;;;;;;;;41.00;46.80;;;;;;6106614;23;20263;-79
2022/10/06 10:28:23;;;;;;;;;;;41.40;46.40;;;;;;6081509;23;20307;-79
2022/10/06 10:31:01;;;;;;;;;;;40.90;45.50;;;;;;6081278;23;19901;-80
2022/10/06 10:33:38;;;;;;;;;;;41.20;45.80;;;;;;6081859;23;19905;-79
2022/10/06 10:36:10;;;;;;;;;;;42.00;45.30;;;;;;6081842;23;19933;-80
2022/10/06 10:38:44;;;;;;;;;;;41.40;45.20;;;;;;6055888;23;19912;-80
2022/10/06 10:41:19;;;;;;;;;;;41.00;44.70;;;;;;6079344;23;19905;-80
2022/10/06 10:43:52;;;;;;;;;;;40.60;44.80;;;;;;6081696;23;19904;-80
2022/10/06 10:46:21;;;;;;;;;;;39.60;45.00;;;;;;6056395;23;19908;-80
2022/10/06 10:48:51;;;;;;;;;;;37.40;47.80;;;;;;6082109;23;19913;-80
2022/10/06 10:51:33;;;;;;;;;;;35.50;49.10;;;;;;6078903;23;19901;-78
2022/10/06 10:54:04;;;;;;;;;;;34.20;50.40;;;;;;6076679;23;20345;-78
2022/10/06 10:56:38;;;;;;;;;;;32.90;52.00;;;;;;6055853;23;20470;-78
2022/10/06 10:59:33;;;;;;;;;;;32.00;53.30;;;;;;6087075;23;19901;-80
2022/10/06 11:02:25;;;;;;;;;;;31.30;53.90;;;;;;6080955;23;19986;-81
2022/10/06 11:04:56;;;;;;;;;;;30.50;55.60;;;;;;6076386;23;20243;-78
2022/10/06 11:07:35;;;;;;;;;;;29.80;56.60;;;;;;6056585;23;19933;-78
2022/10/06 11:10:21;;;;;;;;;;;29.60;57.00;;;;;;6056386;23;19902;-80
2022/10/06 11:13:00;;;;;;;;;;;29.30;56.90;;;;;;6080967;23;19905;-81
2022/10/06 11:15:45;;;;;;;;;;;29.10;57.80;;;;;;6055427;23;19908;-82
2022/10/06 11:18:16;;;;;;;;;;;29.10;58.20;;;;;;6080589;23;20235;-79
2022/10/06 11:20:46;;;;;;;;;;;29.00;58.50;;;;;;6079248;23;19976;-78
2022/10/06 11:23:27;;;;;;;;;;;28.90;58.80;;;;;;6076414;23;19908;-81
2022/10/06 11:26:13;;;;;;;;;;;28.90;59.20;;;;;;6090044;23;19959;-81
2022/10/06 11:28:43;;;;;;;;;;;28.80;59.30;;;;;;6103863;23;19904;-82
2022/10/06 11:31:33;;;;;;;;;;;28.90;59.60;;;;;;6108646;23;19921;-81
2022/10/06 11:34:00;;;;;;;;;;;28.90;58.90;;;;;;6105537;23;19951;-77
2022/10/06 11:36:43;;;;;;;;;;;28.60;59.50;;;;;;6110293;23;19905;-77
2022/10/06 11:39:28;;;;;;;;;;;28.50;59.80;;;;;;6109791;23;20689;-79
2022/10/06 11:42:01;;;;;;;;;;;28.40;60.00;;;;;;6102678;23;19905;-78
2022/10/06 11:44:39;;;;;;;;;;;28.10;60.10;;;;;;6110126;23;19971;-78
2022/10/06 11:47:19;;;;;;;;;;;28.00;60.60;;;;;;6109835;23;19911;-79
2022/10/06 11:49:50;;;;;;;;;;;27.90;60.40;;;;;;6108474;23;19941;-78
2022/10/06 11:52:16;;;;;;;;;;;27.80;60.40;;;;;;6109407;23;19951;-79
2022/10/06 11:54:51;;;;;;;;;;;27.70;60.90;;;;;;6111110;23;19904;-79
2022/10/06 11:57:27;;;;;;;;;;;27.40;61.20;;;;;;6111174;23;20597;-79
2022/10/06 12:00:15;;;;;;;;;;;27.30;62.00;;;;;;6110691;23;19901;-79
2022/10/06 12:02:43;;;;;;;;;;;27.10;62.30;;;;;;6115732;23;19908;-79
2022/10/06 12:05:11;;;;;;;;;;;26.90;62.90;;;;;;6110650;23;20627;-80
2022/10/06 12:08:09;;;;;;;;;;;26.60;63.60;;;;;;6112561;23;20000;-80
2022/10/06 12:10:34;;;;;;;;;;;26.50;64.10;;;;;;6068662;23;19968;-79
2022/10/06 12:13:21;;;;;;;;;;;26.00;65.40;;;;;;6105144;23;20300;-78
2022/10/06 12:16:06;;;;;;;;;;;25.90;65.80;;;;;;6112662;23;19924;-79
2022/10/06 12:18:40;;;;;;;;;;;25.90;65.60;;;;;;6106862;23;19911;-78
2022/10/06 12:21:26;;;;;;;;;;;25.80;65.60;;;;;;6110444;23;19901;-77
2022/10/06 12:24:12;;;;;;;;;;;26.00;66.30;;;;;;6112437;23;19905;-77
2022/10/06 12:26:51;;;;;;;;;;;26.10;65.40;;;;;;6110922;23;19916;-77
2022/10/06 12:29:45;;;;;;;;;;;26.10;66.50;;;;;;6105407;23;19904;-77
2022/10/06 12:32:11;;;;;;;;;;;26.10;65.90;;;;;;6109987;23;19904;-77
2022/10/06 12:34:41;;;;;;;;;;;26.10;66.20;;;;;;6110676;23;20267;-77
2022/10/06 12:37:26;;;;;;;;;;;26.20;66.10;;;;;;6108576;23;19912;-71
2022/10/06 12:39:51;;;;;;;;;;;26.10;66.60;;;;;;6109543;23;19904;-70
2022/10/06 12:42:18;;;;;;;;;;;26.10;65.80;;;;;;6107486;23;19959;-71
2022/10/06 12:44:48;;;;;;;;;;;26.10;66.20;;;;;;6108231;23;19929;-71
2022/10/06 12:47:44;;;;;;;;;;;26.00;66.80;;;;;;6113120;23;19952;-71
2022/10/06 12:50:24;;;;;;;;;;;25.90;67.00;;;;;;6095609;23;19932;-71
2022/10/06 12:52:52;;;;;;;;;;;25.80;67.30;;;;;;6107937;23;19904;-70
2022/10/06 12:55:37;;;;;;;;;;;25.50;67.80;;;;;;6107418;23;19959;-71
2022/10/06 12:58:02;;;;;;;;;;;25.40;68.70;;;;;;6105911;23;19912;-71
2022/10/06 13:00:33;;;;;;;;;;;25.40;68.30;;;;;;6110197;23;19900;-71
2022/10/06 13:03:01;;;;;;;;;;;25.50;68.60;;;;;;6110376;23;19901;-71
2022/10/06 13:05:27;;;;;;;;;;;25.60;67.80;;;;;;6103093;23;19912;-73
2022/10/06 13:08:00;;;;;;;;;;;25.60;67.50;;;;;;6109469;23;19905;-73
2022/10/06 13:10:26;;;;;;;;;;;25.60;67.80;;;;;;6104738;23;19991;-71
2022/10/06 13:12:51;;;;;;;;;;;25.60;67.90;;;;;;6106866;23;20569;-72
2022/10/06 13:15:22;;;;;;;;;;;25.60;68.60;;;;;;6106623;23;19999;-69
2022/10/06 13:17:55;;;;;;;;;;;25.70;68.40;;;;;;6104915;23;20295;-72
2022/10/06 13:20:31;;;;;;;;;;;25.70;68.60;;;;;;6107361;23;19904;-73
2022/10/06 13:22:59;;;;;;;;;;;25.70;68.10;;;;;;6108694;23;19924;-72
2022/10/06 13:25:27;;;;;;;;;;;25.60;67.90;;;;;;6103969;23;19916;-72
2022/10/06 13:27:53;;;;;;;;;;;25.60;68.60;;;;;;6078463;23;19902;-71
2022/10/06 13:30:20;;;;;;;;;;;25.60;69.00;;;;;;6076190;23;19901;-70
2022/10/06 13:32:46;;;;;;;;;;;25.60;68.60;;;;;;6077917;23;19906;-70
2022/10/06 13:35:13;;;;;;;;;;;25.70;69.00;;;;;;6083039;23;20004;-70
2022/10/06 13:37:38;;;;;;;;;;;25.60;69.00;;;;;;6060434;23;19909;-70
2022/10/06 13:40:14;;;;;;;;;;;25.60;69.00;;;;;;6055351;23;19943;-73
2022/10/06 13:42:44;;;;;;;;;;;25.30;69.50;;;;;;6052441;23;20701;-72
2022/10/06 13:45:13;;;;;;;;;;;25.30;69.80;;;;;;6077546;23;20363;-72
2022/10/06 13:47:39;;;;;;;;;;;25.20;69.30;;;;;;6078104;23;20110;-73
2022/10/06 13:50:14;;;;;;;;;;;25.30;69.60;;;;;;6053631;23;19905;-73
2022/10/06 13:52:45;;;;;;;;;;;25.30;69.70;;;;;;6081618;23;19905;-73
2022/10/06 13:55:24;;;;;;;;;;;25.30;69.70;;;;;;6082681;23;19901;-70
2022/10/06 13:57:50;;;;;;;;;;;25.30;69.30;;;;;;6053402;23;19906;-71
2022/10/06 14:00:17;;;;;;;;;;;25.10;70.20;;;;;;6079084;23;19905;-71
2022/10/06 14:02:44;;;;;;;;;;;25.30;70.00;;;;;;6077551;23;19932;-70
2022/10/06 14:05:22;;;;;;;;;;;25.30;69.80;;;;;;6078215;23;19905;-71
2022/10/06 14:07:48;;;;;;;;;;;25.40;69.70;;;;;;6072838;23;19905;-71
2022/10/06 14:10:15;;;;;;;;;;;25.30;70.00;;;;;;6056050;23;20003;-71
2022/10/06 14:12:42;;;;;;;;;;;25.20;69.90;;;;;;6076434;23;19921;-71
2022/10/06 14:15:21;;;;;;;;;;;25.10;70.00;;;;;;6079009;23;19905;-71
2022/10/06 14:18:01;;;;;;;;;;;24.80;71.30;;;;;;6053618;23;20300;-71
2022/10/06 14:20:46;;;;;;;;;;;24.80;71.90;;;;;;6077899;23;19905;-71
2022/10/06 14:23:30;;;;;;;;;;;24.60;72.60;;;;;;6075512;23;19952;-71
2022/10/06 14:25:56;;;;;;;;;;;24.60;72.90;;;;;;6077388;23;19913;-71
2022/10/06 14:28:21;;;;;;;;;;;24.30;73.30;;;;;;6071896;23;20279;-71
2022/10/06 14:30:47;;;;;;;;;;;24.30;73.40;;;;;;6074483;23;20327;-71
2022/10/06 14:33:12;;;;;;;;;;;24.30;73.50;;;;;;6074848;23;19992;-71
2022/10/06 14:35:38;;;;;;;;;;;24.30;72.40;;;;;;6075403;23;20331;-71
2022/10/06 14:38:03;;;;;;;;;;;24.30;73.00;;;;;;6072661;23;20138;-71
2022/10/06 14:40:29;;;;;;;;;;;24.40;73.10;;;;;;6078181;23;19963;-72
2022/10/06 14:42:54;;;;;;;;;;;24.30;73.40;;;;;;6069801;23;20231;-71
2022/10/06 14:45:20;;;;;;;;;;;24.30;73.30;;;;;;6078657;23;20401;-71
2022/10/06 14:47:45;;;;;;;;;;;24.30;73.40;;;;;;6054652;23;19995;-67
2022/10/06 14:50:11;;;;;;;;;;;24.20;72.90;;;;;;6077423;23;20275;-66
2022/10/06 14:52:37;;;;;;;;;;;24.20;73.40;;;;;;6075398;23;20569;-70
2022/10/06 14:55:06;;;;;;;;;;;24.00;73.20;;;;;;6076266;23;19916;-66
2022/10/06 14:57:31;;;;;;;;;;;24.00;74.00;;;;;;6076777;23;19909;-65
2022/10/06 14:59:57;;;;;;;;;;;24.00;74.20;;;;;;6076098;23;20007;-65
2022/10/06 15:02:22;;;;;;;;;;;24.00;74.80;;;;;;6074696;23;19901;-71
2022/10/06 15:04:48;;;;;;;;;;;24.10;75.70;;;;;;6071606;23;19905;-66
2022/10/06 15:09:59;;;;;;;;;;;24.10;75.40;;;;;;6077364;23;20383;-67
2022/10/06 15:12:25;;;;;;;;;;;24.10;75.60;;;;;;6076893;23;20395;-65